Time;durP1;ratioP1;P1;durP2;ratioP2;P2;SDS_P1;SDS_P2;PMS_P1;PMS_P2;Temp;Humidity;BMP_temperature;BMP_pressure;BME280_temperature;BME280_humidity;BME280_pressure;Samples;Min_cycle;Max_cycle;Signal;HPM_P1;HPM_P2
2022/01/03 00:00:14;;;;;;;64.78;22.15;;;;;;;7.04;87.47;100170.25;5094004;28;20418;-51
2022/01/03 00:02:40;;;;;;;57.15;22.25;;;;;;;7.61;85.16;100171.00;5093531;28;20028;-48
2022/01/03 00:05:06;;;;;;;70.47;21.58;;;;;;;7.58;83.72;100166.88;5093262;28;20035;-51
2022/01/03 00:07:34;;;;;;;60.45;20.08;;;;;;;7.43;84.00;100164.13;5093457;28;20071;-48
2022/01/03 00:09:59;;;;;;;51.63;21.23;;;;;;;7.49;83.97;100159.16;5092537;28;20044;-48
2022/01/03 00:12:25;;;;;;;64.40;20.42;;;;;;;7.14;85.67;100163.91;5075576;28;20012;-48
2022/01/03 00:14:50;;;;;;;62.03;21.48;;;;;;;7.16;85.42;100152.16;5075595;28;20028;-48
2022/01/03 00:17:15;;;;;;;60.25;20.33;;;;;;;6.89;86.66;100153.38;5092216;28;20653;-48
2022/01/03 00:19:41;;;;;;;46.47;20.38;;;;;;;6.76;88.18;100143.34;5093722;28;20039;-49
2022/01/03 00:22:07;;;;;;;72.90;22.63;;;;;;;6.77;88.40;100137.06;5093697;28;20488;-48
2022/01/03 00:24:33;;;;;;;60.35;20.88;;;;;;;6.42;89.65;100120.59;5093673;28;20123;-48
2022/01/03 00:27:04;;;;;;;73.65;22.05;;;;;;;6.59;90.12;100126.69;5093432;28;20016;-48
2022/01/03 00:29:42;;;;;;;65.80;19.90;;;;;;;6.21;90.65;100102.59;5093591;28;20475;-50
2022/01/03 00:32:08;;;;;;;50.35;21.20;;;;;;;6.65;88.90;100110.13;5092313;28;20016;-48
2022/01/03 00:34:34;;;;;;;64.00;21.77;;;;;;;6.50;89.49;100097.78;5093274;28;20024;-47
2022/01/03 00:36:59;;;;;;;55.05;20.65;;;;;;;6.06;90.94;100093.69;5093313;28;20020;-48
2022/01/03 00:39:24;;;;;;;49.50;20.30;;;;;;;6.18;90.86;100102.94;5091810;28;20035;-49
2022/01/03 00:41:50;;;;;;;43.35;20.42;;;;;;;6.17;89.97;100100.44;5093161;28;20031;-48
2022/01/03 00:44:15;;;;;;;52.38;20.75;;;;;;;6.45;88.50;100090.34;5093135;28;20407;-48
2022/01/03 00:46:43;;;;;;;61.35;22.00;;;;;;;6.72;88.40;100086.50;5093527;28;20205;-48
2022/01/03 00:49:08;;;;;;;50.10;20.10;;;;;;;6.58;87.98;100095.13;5092781;28;20475;-48
2022/01/03 00:51:34;;;;;;;50.03;21.02;;;;;;;6.50;87.33;100082.75;5091993;28;20027;-48
2022/01/03 00:54:00;;;;;;;50.25;21.08;;;;;;;6.40;88.16;100079.47;5092936;28;20090;-48
2022/01/03 00:56:37;;;;;;;53.65;22.73;;;;;;;6.38;89.72;100081.47;5093161;28;20024;-49
2022/01/03 00:59:12;;;;;;;46.70;20.70;;;;;;;6.48;88.13;100082.09;5092971;28;20020;-49
2022/01/03 01:01:40;;;;;;;45.13;19.65;;;;;;;6.46;87.91;100078.78;5092750;28;20493;-49
2022/01/03 01:04:07;;;;;;;43.80;20.00;;;;;;;6.54;87.49;100086.69;5091341;28;20056;-51
2022/01/03 01:06:34;;;;;;;46.85;20.88;;;;;;;6.45;87.96;100085.06;5092547;28;20032;-50
2022/01/03 01:08:59;;;;;;;44.55;19.80;;;;;;;6.36;88.19;100080.78;5092639;28;20044;-51
2022/01/03 01:11:27;;;;;;;48.88;20.27;;;;;;;6.35;88.58;100077.31;5074372;28;20012;-51
2022/01/03 01:13:53;;;;;;;45.83;18.92;;;;;;;6.38;88.73;100079.63;5092545;28;20103;-50
2022/01/03 01:16:18;;;;;;;50.25;18.88;;;;;;;6.43;89.16;100081.75;5091221;28;20023;-49
2022/01/03 01:18:44;;;;;;;55.83;19.75;;;;;;;6.25;89.96;100076.69;5091173;28;20024;-48
2022/01/03 01:21:09;;;;;;;43.67;19.33;;;;;;;6.23;89.51;100070.75;5092652;28;20476;-54
2022/01/03 01:23:37;;;;;;;59.10;20.40;;;;;;;6.25;90.17;100066.09;5092293;28;20020;-49
2022/01/03 01:28:47;;;;;;;46.20;18.90;;;;;;;6.06;91.86;100059.34;5092396;28;20100;-50
2022/01/03 01:31:12;;;;;;;42.50;17.38;;;;;;;6.06;90.97;100059.34;5092326;28;20024;-50
2022/01/03 01:33:38;;;;;;;57.90;16.65;;;;;;;5.93;90.89;100053.72;5074117;28;20483;-48
2022/01/03 01:36:04;;;;;;;50.78;16.35;;;;;;;6.10;89.58;100047.44;5090922;28;20354;-50
2022/01/03 01:38:31;;;;;;;70.15;15.27;;;;;;;5.96;88.84;100046.31;5090877;28;20024;-49
2022/01/03 01:40:58;;;;;;;44.05;14.25;;;;;;;5.80;89.58;100046.28;5092053;28;20024;-48
2022/01/03 01:43:44;;;;;;;51.17;15.57;;;;;;;5.68;89.42;100032.59;5091487;28;20046;-51
2022/01/03 01:46:20;;;;;;;44.63;14.68;;;;;;;5.59;89.64;100030.91;5091929;28;20020;-51
2022/01/03 01:48:49;;;;;;;57.50;14.65;;;;;;;5.39;90.08;100028.59;5092071;28;20032;-49
2022/01/03 01:51:16;;;;;;;75.35;15.48;;;;;;;5.37;89.87;100032.38;5091979;28;20016;-48
2022/01/03 01:53:47;;;;;;;50.78;14.18;;;;;;;5.31;89.20;100030.38;5092118;28;20411;-48
2022/01/03 01:56:22;;;;;;;79.93;14.55;;;;;;;4.99;89.41;100031.94;5071616;28;20028;-49
2022/01/03 01:59:10;;;;;;;36.13;13.55;;;;;;;5.08;90.18;100033.63;5071585;28;20032;-50
2022/01/03 02:01:44;;;;;;;59.15;14.85;;;;;;;5.08;89.99;100012.50;5070324;28;20661;-49
2022/01/03 02:04:34;;;;;;;42.08;12.88;;;;;;;4.89;91.82;100008.34;5071300;28;20038;-50
2022/01/03 02:07:08;;;;;;;56.33;14.43;;;;;;;4.82;91.94;99988.91;5071228;28;20028;-50
2022/01/03 02:09:37;;;;;;;36.05;13.20;;;;;;;4.87;92.52;99994.50;5070191;28;20028;-48
2022/01/03 02:12:03;;;;;;;43.97;14.82;;;;;;;5.03;92.04;100005.09;5069986;28;20644;-51
2022/01/03 02:14:35;;;;;;;38.17;14.90;;;;;;;4.99;91.41;99997.66;5071109;28;20082;-49
2022/01/03 02:17:01;;;;;;;36.97;14.75;;;;;;;5.21;90.74;99988.31;5071078;28;20100;-50
2022/01/03 02:19:27;;;;;;;41.50;14.40;;;;;;;5.15;90.75;99973.97;5070985;28;20115;-49
2022/01/03 02:21:52;;;;;;;63.22;14.93;;;;;;;5.24;90.03;99964.25;5070716;28;20118;-50
2022/01/03 02:24:18;;;;;;;33.70;14.80;;;;;;;5.11;89.41;99970.00;5071031;28;20408;-52
2022/01/03 02:26:43;;;;;;;35.70;14.38;;;;;;;5.14;90.39;99979.38;5071092;28;20020;-49
2022/01/03 02:29:08;;;;;;;45.05;14.90;;;;;;;5.01;89.63;99964.06;5070867;28;20020;-49
2022/01/03 02:31:34;;;;;;;40.30;15.57;;;;;;;5.27;89.94;99970.03;5069460;28;20024;-52
2022/01/03 02:34:03;;;;;;;66.65;16.25;;;;;;;5.55;90.32;99960.97;5071271;28;20021;-49
2022/01/03 02:36:32;;;;;;;44.30;17.00;;;;;;;6.05;89.77;99965.22;5070802;28;20020;-49
2022/01/03 02:38:57;;;;;;;42.63;15.93;;;;;;;5.77;88.17;99935.69;5070948;28;20024;-51
2022/01/03 02:41:23;;;;;;;40.00;15.85;;;;;;;5.86;88.30;99945.25;5071631;28;20082;-49
2022/01/03 02:43:52;;;;;;;47.28;15.70;;;;;;;5.57;89.45;99946.59;5088684;28;20085;-49
2022/01/03 02:46:17;;;;;;;32.55;15.95;;;;;;;5.60;89.24;99956.03;5091675;28;20031;-52
2022/01/03 02:48:43;;;;;;;36.47;15.55;;;;;;;5.56;89.57;99952.88;5090407;28;20023;-49
2022/01/03 02:51:09;;;;;;;38.67;16.55;;;;;;;5.69;89.58;99960.28;5090437;28;20460;-50
2022/01/03 02:53:36;;;;;;;44.75;17.33;;;;;;;5.55;90.56;99976.81;5073488;28;20085;-51
2022/01/03 02:56:01;;;;;;;40.65;17.02;;;;;;;5.62;90.66;99978.63;5073324;28;20051;-49
2022/01/03 02:58:27;;;;;;;40.72;16.92;;;;;;;5.71;89.51;99971.50;5091458;28;20064;-51
2022/01/03 03:00:52;;;;;;;42.92;17.73;;;;;;;5.75;90.31;99964.91;5091499;28;20073;-52
2022/01/03 03:03:19;;;;;;;42.55;17.05;;;;;;;5.85;89.23;99962.09;5091180;28;20035;-50
2022/01/03 03:05:45;;;;;;;41.53;17.98;;;;;;;5.97;88.91;99967.88;5091694;28;20054;-48
2022/01/03 03:08:11;;;;;;;40.55;17.02;;;;;;;5.84;88.77;99963.88;5091458;28;20083;-51
2022/01/03 03:10:36;;;;;;;48.80;17.55;;;;;;;5.96;87.73;99969.72;5091394;28;20085;-48
2022/01/03 03:13:02;;;;;;;42.55;15.95;;;;;;;5.80;87.56;99967.84;5092943;28;20107;-51
2022/01/03 03:15:27;;;;;;;42.72;17.67;;;;;;;5.58;88.67;99969.38;5095520;28;20012;-49
2022/01/03 03:17:53;;;;;;;47.42;18.23;;;;;;;5.79;88.94;99970.69;5095646;28;20027;-50
2022/01/03 03:20:23;;;;;;;48.65;18.08;;;;;;;5.80;88.76;99978.44;5095147;28;20053;-49
2022/01/03 03:22:50;;;;;;;42.25;17.98;;;;;;;5.85;88.94;99976.13;5095365;28;20032;-50
2022/01/03 03:25:23;;;;;;;45.22;19.20;;;;;;;6.68;87.11;99973.25;5095619;28;20020;-48
2022/01/03 03:27:56;;;;;;;38.33;16.98;;;;;;;6.29;86.09;99947.66;5094407;28;20503;-51
2022/01/03 03:30:36;;;;;;;57.03;17.70;;;;;;;6.19;85.82;99953.97;5095905;28;20077;-51
2022/01/03 03:33:05;;;;;;;38.93;17.30;;;;;;;5.82;86.78;99950.03;5095540;28;20031;-51
2022/01/03 03:35:30;;;;;;;37.45;16.23;;;;;;;5.62;85.13;99949.56;5094144;28;20250;-51
2022/01/03 03:37:56;;;;;;;33.13;16.77;;;;;;;5.47;86.50;99954.69;5094334;28;20722;-48
2022/01/03 03:40:21;;;;;;;35.20;17.42;;;;;;;5.52;86.59;99963.91;5095065;28;20024;-48
2022/01/03 03:42:47;;;;;;;40.22;16.48;;;;;;;5.45;87.27;99954.03;5094658;28;20024;-49
2022/01/03 03:45:12;;;;;;;41.95;19.83;;;;;;;5.57;89.76;99943.94;5094997;28;20442;-51
2022/01/03 03:47:38;;;;;;;47.65;20.45;;;;;;;6.56;86.06;99933.97;5094986;28;20055;-51
2022/01/03 03:50:04;;;;;;;43.03;20.23;;;;;;;6.16;86.20;99927.88;5094923;28;20031;-49
2022/01/03 03:52:30;;;;;;;49.55;19.05;;;;;;;5.88;87.41;99922.97;5094977;28;20081;-49
2022/01/03 03:54:55;;;;;;;52.65;19.65;;;;;;;5.97;87.47;99912.41;5094715;28;20032;-50
2022/01/03 03:57:20;;;;;;;53.90;19.67;;;;;;;5.90;87.48;99896.34;5094756;28;20020;-49
2022/01/03 03:59:46;;;;;;;53.67;20.10;;;;;;;5.74;88.68;99913.06;5095271;28;20024;-52
2022/01/03 04:02:11;;;;;;;48.97;20.30;;;;;;;5.70;88.38;99913.59;5094758;28;20403;-50
2022/01/03 04:04:37;;;;;;;47.35;19.83;;;;;;;5.68;87.23;99913.75;5094591;28;20053;-48
2022/01/03 04:07:02;;;;;;;49.97;21.10;;;;;;;5.55;88.37;99905.53;5094368;28;20052;-50
2022/01/03 04:09:28;;;;;;;56.13;20.75;;;;;;;5.80;88.79;99901.03;5094542;28;20114;-52
2022/01/03 04:11:53;;;;;;;51.20;19.95;;;;;;;5.79;87.91;99891.47;5094559;28;20016;-52
2022/01/03 04:14:19;;;;;;;47.45;18.17;;;;;;;5.80;88.15;99886.00;5094687;28;20031;-52
2022/01/03 04:16:45;;;;;;;51.80;20.58;;;;;;;6.48;86.46;99883.78;5094308;28;20031;-51
2022/01/03 04:19:10;;;;;;;40.80;17.33;;;;;;;6.15;86.78;99898.97;5094755;28;20107;-51
2022/01/03 04:21:37;;;;;;;44.58;19.00;;;;;;;5.85;87.26;99898.72;5094307;28;20030;-50
2022/01/03 04:24:04;;;;;;;46.70;18.67;;;;;;;5.78;87.49;99897.72;5093966;28;20078;-51
2022/01/03 04:26:30;;;;;;;39.60;16.75;;;;;;;5.60;88.49;99895.28;5093727;28;20024;-50
2022/01/03 04:28:55;;;;;;;47.08;17.25;;;;;;;5.35;88.63;99882.13;5094079;28;20031;-50
2022/01/03 04:31:21;;;;;;;43.00;16.23;;;;;;;5.35;89.78;99891.81;5094107;28;20016;-52
2022/01/03 04:33:47;;;;;;;37.35;15.50;;;;;;;5.63;88.15;99889.66;5094112;28;20031;-48
2022/01/03 04:36:13;;;;;;;38.03;15.40;;;;;;;5.61;87.99;99895.09;5094420;28;20020;-52
2022/01/03 04:38:38;;;;;;;37.72;15.25;;;;;;;6.18;87.99;99909.19;5094244;28;20012;-49
2022/01/03 04:41:04;;;;;;;32.25;13.55;;;;;;;6.15;87.14;99898.97;5093433;28;20506;-51
2022/01/03 04:43:29;;;;;;;36.33;13.40;;;;;;;5.99;85.60;99899.84;5094144;28;20085;-49
2022/01/03 04:45:56;;;;;;;34.58;14.30;;;;;;;5.65;87.36;99893.81;5094034;28;20074;-52
2022/01/03 04:48:22;;;;;;;36.47;14.05;;;;;;;5.52;88.78;99908.47;5093897;28;20119;-51
2022/01/03 04:50:47;;;;;;;36.58;15.00;;;;;;;5.39;88.58;99904.53;5093969;28;20028;-50
2022/01/03 04:53:13;;;;;;;33.33;14.13;;;;;;;5.25;89.00;99892.84;5093651;28;20028;-49
2022/01/03 04:55:38;;;;;;;31.15;13.65;;;;;;;5.38;88.86;99902.06;5093344;28;20073;-50
2022/01/03 04:58:04;;;;;;;35.92;13.95;;;;;;;5.27;89.59;99901.41;5093955;28;20027;-51
2022/01/03 05:00:29;;;;;;;34.47;14.13;;;;;;;5.54;88.69;99906.50;5093241;28;20484;-49
2022/01/03 05:02:54;;;;;;;43.22;15.45;;;;;;;6.30;88.40;99907.81;5093820;28;20376;-51
2022/01/03 05:05:21;;;;;;;33.10;14.60;;;;;;;6.45;86.48;99903.47;5093314;28;20028;-49
2022/01/03 05:07:47;;;;;;;38.78;16.05;;;;;;;5.75;84.30;99893.63;5093460;28;20139;-49
2022/01/03 05:10:13;;;;;;;32.45;15.80;;;;;;;5.27;84.40;99888.22;5093387;28;20046;-50
2022/01/03 05:12:38;;;;;;;34.70;15.23;;;;;;;4.95;85.29;99890.81;5093502;28;20024;-51
2022/01/03 05:15:04;;;;;;;36.20;16.83;;;;;;;4.92;86.07;99889.34;5093437;28;20028;-50
2022/01/03 05:17:31;;;;;;;40.33;16.02;;;;;;;4.79;86.06;99889.00;5093216;28;20024;-51
2022/01/03 05:19:57;;;;;;;35.65;16.48;;;;;;;4.77;85.74;99891.78;5093020;28;20456;-52
2022/01/03 05:22:22;;;;;;;36.95;16.65;;;;;;;4.59;86.44;99904.28;5093218;28;20032;-50
2022/01/03 05:24:48;;;;;;;33.22;16.25;;;;;;;4.62;86.65;99909.22;5093139;28;20027;-49
2022/01/03 05:27:13;;;;;;;39.20;17.58;;;;;;;5.01;87.30;99912.13;5092860;28;20035;-49
2022/01/03 05:29:39;;;;;;;45.10;17.15;;;;;;;5.46;85.11;99894.97;5093272;28;20037;-48
2022/01/03 05:32:04;;;;;;;37.28;16.75;;;;;;;5.06;84.67;99896.63;5092131;28;20081;-49
2022/01/03 05:34:30;;;;;;;33.63;15.60;;;;;;;4.98;84.64;99893.16;5090739;28;20072;-48
2022/01/03 05:36:55;;;;;;;33.70;16.52;;;;;;;4.78;85.44;99889.97;5091930;28;20459;-49
2022/01/03 05:39:21;;;;;;;37.28;16.75;;;;;;;4.66;85.79;99889.47;5092221;28;20026;-52
2022/01/03 05:41:47;;;;;;;34.97;15.27;;;;;;;4.55;86.34;99885.34;5092548;28;20024;-52
2022/01/03 05:44:12;;;;;;;50.17;17.48;;;;;;;4.57;86.97;99885.16;5092356;28;20020;-49
2022/01/03 05:46:37;;;;;;;44.75;18.10;;;;;;;4.55;87.34;99876.59;5092613;28;20024;-51
2022/01/03 05:49:03;;;;;;;40.85;19.08;;;;;;;4.80;85.50;99882.75;5092058;28;20494;-49
2022/01/03 05:51:28;;;;;;;41.03;18.10;;;;;;;4.57;85.68;99888.63;5092022;28;20020;-49
2022/01/03 05:53:54;;;;;;;39.60;18.15;;;;;;;4.55;86.40;99902.94;5088993;28;20032;-49
2022/01/03 05:56:19;;;;;;;37.08;17.20;;;;;;;4.48;86.91;99905.41;5090667;28;20464;-48
2022/01/03 05:58:45;;;;;;;47.60;18.90;;;;;;;4.70;86.15;99893.44;5091554;28;20102;-49
2022/01/03 06:01:11;;;;;;;47.05;19.17;;;;;;;4.55;87.17;99901.16;5091379;28;20110;-50
2022/01/03 06:03:38;;;;;;;47.47;19.83;;;;;;;4.63;87.21;99888.00;5091792;28;20089;-49
2022/01/03 06:06:18;;;;;;;46.50;20.73;;;;;;;4.69;86.90;99889.97;5092046;28;20028;-39
2022/01/03 06:08:43;;;;;;;45.08;20.13;;;;;;;4.74;86.65;99888.66;5071960;28;20048;-39
2022/01/03 06:11:09;;;;;;;45.08;19.80;;;;;;;4.76;86.53;99882.25;5071735;28;20021;-39
2022/01/03 06:13:34;;;;;;;49.22;19.90;;;;;;;4.72;87.17;99885.34;5071924;28;20070;-37
2022/01/03 06:16:00;;;;;;;53.88;21.27;;;;;;;4.68;86.56;99890.97;5071336;28;20032;-39
2022/01/03 06:18:25;;;;;;;52.72;21.15;;;;;;;4.65;87.53;99879.91;5070809;28;20111;-38
2022/01/03 06:20:51;;;;;;;60.63;21.10;;;;;;;4.67;87.68;99881.41;5069498;28;20025;-39
2022/01/03 06:23:19;;;;;;;57.22;22.13;;;;;;;4.54;88.68;99877.59;5071510;28;20032;-39
2022/01/03 06:25:44;;;;;;;66.70;23.63;;;;;;;5.46;87.78;99879.13;5070478;28;20176;-38
2022/01/03 06:28:10;;;;;;;58.13;22.38;;;;;;;5.55;86.22;99864.09;5069943;28;20678;-39
2022/01/03 06:30:41;;;;;;;51.85;20.65;;;;;;;5.31;85.93;99867.59;5069550;28;20051;-39
2022/01/03 06:33:07;;;;;;;64.97;25.58;;;;;;;5.18;85.87;99864.63;5068236;28;20063;-39
2022/01/03 06:35:33;;;;;;;64.72;24.85;;;;;;;5.08;87.31;99857.72;5069021;28;20030;-39
2022/01/03 06:37:59;;;;;;;79.65;31.38;;;;;;;5.07;87.37;99863.97;5073635;28;20028;-39
2022/01/03 06:40:25;;;;;;;66.93;26.95;;;;;;;4.96;87.53;99869.56;5089711;28;20202;-39
2022/01/03 06:42:51;;;;;;;50.65;20.50;;;;;;;4.95;87.95;99869.72;5090101;28;20024;-39
2022/01/03 06:45:16;;;;;;;51.50;19.63;;;;;;;5.00;87.84;99873.53;5091154;28;20020;-38
2022/01/03 06:47:42;;;;;;;52.60;18.92;;;;;;;5.10;86.67;99862.81;5090777;28;20048;-38
2022/01/03 06:50:08;;;;;;;56.33;19.50;;;;;;;5.17;87.47;99844.53;5090927;28;20085;-39
2022/01/03 06:52:33;;;;;;;49.47;18.85;;;;;;;5.18;87.49;99848.78;5089789;28;20047;-39
2022/01/03 06:54:59;;;;;;;48.20;19.15;;;;;;;5.11;87.36;99848.66;5090696;28;20027;-39
2022/01/03 06:57:24;;;;;;;50.05;17.30;;;;;;;5.01;87.64;99842.72;5090577;28;20426;-38
2022/01/03 06:59:50;;;;;;;56.35;20.00;;;;;;;5.05;87.93;99871.22;5090593;28;20028;-38
2022/01/03 07:02:15;;;;;;;62.53;21.13;;;;;;;5.53;87.60;99867.91;5090641;28;20032;-38
2022/01/03 07:04:41;;;;;;;61.20;21.00;;;;;;;5.88;85.63;99871.94;5090967;28;20533;-44
2022/01/03 07:07:06;;;;;;;51.67;19.27;;;;;;;5.42;85.55;99872.53;5072675;28;20060;-38
2022/01/03 07:09:32;;;;;;;61.42;21.20;;;;;;;5.38;84.42;99875.69;5090922;28;20035;-39
2022/01/03 07:11:57;;;;;;;65.38;20.55;;;;;;;5.18;85.67;99865.47;5091004;28;20407;-38
2022/01/03 07:19:45;;;;;;;51.75;19.08;;;;;;;6.18;86.09;99874.84;5090991;28;20063;-39
2022/01/03 07:22:10;;;;;;;37.13;14.75;;;;;;;5.71;85.57;99865.06;5090803;28;20028;-39
2022/01/03 07:24:36;;;;;;;109.82;45.05;;;;;;;5.45;86.88;99861.66;5090512;28;20023;-39
2022/01/03 07:27:06;;;;;;;46.50;18.85;;;;;;;5.69;85.48;99870.50;5090442;28;20032;-40
2022/01/03 07:29:32;;;;;;;39.08;16.08;;;;;;;5.68;85.70;99890.00;5090561;28;20024;-39
2022/01/03 07:31:57;;;;;;;41.83;16.58;;;;;;;5.46;85.50;99883.56;5090730;28;20122;-38
2022/01/03 07:34:23;;;;;;;43.90;17.00;;;;;;;5.61;86.28;99879.25;5091019;28;20352;-39
2022/01/03 07:36:48;;;;;;;40.83;17.25;;;;;;;5.81;86.66;99881.56;5090729;28;20450;-38
2022/01/03 07:39:14;;;;;;;43.65;17.63;;;;;;;6.00;85.13;99872.44;5090490;28;20407;-38
2022/01/03 07:41:39;;;;;;;38.40;16.58;;;;;;;5.83;84.99;99880.38;5090118;28;20042;-39
2022/01/03 07:44:04;;;;;;;34.60;15.77;;;;;;;5.96;83.74;99877.25;5090640;28;20081;-39
2022/01/03 07:46:30;;;;;;;35.25;14.40;;;;;;;5.84;83.03;99883.84;5089090;28;20039;-39
2022/01/03 07:48:55;;;;;;;36.45;16.15;;;;;;;6.09;84.35;99884.59;5090355;28;20027;-39
2022/01/03 07:51:21;;;;;;;35.50;16.33;;;;;;;6.47;84.36;99871.56;5090559;28;20476;-39
2022/01/03 07:53:46;;;;;;;35.72;15.82;;;;;;;6.45;82.92;99874.41;5090407;28;20031;-37
2022/01/03 07:56:12;;;;;;;34.05;15.80;;;;;;;6.37;83.88;99869.13;5090315;28;20016;-38
2022/01/03 07:58:38;;;;;;;41.38;17.33;;;;;;;6.40;83.00;99867.97;5090615;28;20012;-38
2022/01/03 08:01:04;;;;;;;38.88;17.60;;;;;;;6.28;82.92;99872.81;5094283;28;20028;-39
2022/01/03 08:03:29;;;;;;;36.80;16.10;;;;;;;6.14;82.65;99857.69;5093976;28;20020;-39
2022/01/03 08:05:55;;;;;;;35.13;16.05;;;;;;;6.40;81.91;99865.34;5093962;28;20024;-39
2022/01/03 08:08:21;;;;;;;35.10;16.85;;;;;;;6.32;81.70;99862.72;5093824;28;20074;-39
2022/01/03 08:10:46;;;;;;;39.28;17.75;;;;;;;6.15;81.29;99868.09;5093970;28;20360;-39
2022/01/03 08:13:13;;;;;;;65.82;29.10;;;;;;;6.00;81.90;99872.44;5094094;28;20080;-39
2022/01/03 08:15:39;;;;;;;31.95;15.80;;;;;;;6.01;82.24;99874.09;5093489;28;20023;-39
2022/01/03 08:18:05;;;;;;;33.67;17.23;;;;;;;5.96;82.06;99853.47;5093940;28;20024;-39
2022/01/03 08:20:30;;;;;;;37.22;18.30;;;;;;;6.06;81.99;99855.91;5081160;28;20028;-39
2022/01/03 08:22:56;;;;;;;36.85;17.52;;;;;;;6.04;81.34;99849.97;5087093;28;20543;-38
2022/01/03 08:25:21;;;;;;;30.25;16.60;;;;;;;6.10;80.83;99849.28;5093340;28;20027;-38
2022/01/03 08:27:47;;;;;;;35.75;17.60;;;;;;;6.23;80.26;99851.38;5093569;28;20028;-38
2022/01/03 08:30:12;;;;;;;38.67;17.77;;;;;;;5.97;80.68;99833.16;5093547;28;20024;-38
2022/01/03 08:32:38;;;;;;;32.35;17.13;;;;;;;5.95;81.14;99822.75;5093475;28;20476;-38
2022/01/03 08:35:04;;;;;;;36.08;17.50;;;;;;;5.77;81.91;99822.13;5093464;28;20028;-38
2022/01/03 08:37:29;;;;;;;40.13;18.58;;;;;;;6.23;82.17;99815.19;5093280;28;20138;-38
2022/01/03 08:39:55;;;;;;;37.63;18.35;;;;;;;6.76;81.97;99812.72;5093603;28;20024;-38
2022/01/03 08:42:20;;;;;;;37.38;17.90;;;;;;;6.64;80.41;99814.97;5093331;28;20109;-38
2022/01/03 08:44:46;;;;;;;43.10;19.48;;;;;;;6.71;81.53;99824.81;5092884;28;20434;-38
2022/01/03 08:47:12;;;;;;;38.40;18.35;;;;;;;6.42;80.62;99831.63;5093296;28;20046;-38
2022/01/03 08:49:37;;;;;;;40.40;19.73;;;;;;;6.56;79.69;99822.94;5093292;28;20392;-40
2022/01/03 08:52:05;;;;;;;42.75;19.83;;;;;;;6.34;80.36;99805.22;5093195;28;20012;-38
2022/01/03 08:54:31;;;;;;;41.17;21.08;;;;;;;6.57;79.69;99802.63;5092749;28;20024;-38
2022/01/03 08:56:56;;;;;;;46.95;20.42;;;;;;;6.53;78.90;99811.88;5092937;28;20058;-38
2022/01/03 08:59:22;;;;;;;44.85;20.45;;;;;;;6.46;80.29;99806.47;5092826;28;20020;-38
2022/01/03 09:01:48;;;;;;;45.67;19.85;;;;;;;6.38;80.29;99794.13;5093107;28;20020;-37
2022/01/03 09:04:13;;;;;;;51.83;23.10;;;;;;;6.37;79.74;99797.75;5092711;28;20480;-38
2022/01/03 09:06:39;;;;;;;41.83;21.25;;;;;;;6.26;81.02;99793.72;5091296;28;20055;-38
2022/01/03 09:09:06;;;;;;;47.22;22.85;;;;;;;6.70;81.70;99786.97;5092714;28;20055;-38
2022/01/03 09:11:31;;;;;;;44.38;21.55;;;;;;;7.29;79.17;99774.88;5092498;28;20031;-38
2022/01/03 09:13:57;;;;;;;44.25;21.13;;;;;;;6.97;80.01;99782.13;5092854;28;20024;-38
2022/01/03 09:16:22;;;;;;;47.95;21.52;;;;;;;7.01;79.45;99778.94;5092726;28;20052;-38
2022/01/03 09:18:48;;;;;;;46.28;21.15;;;;;;;7.06;78.34;99775.75;5092673;28;20376;-38
2022/01/03 09:21:13;;;;;;;43.75;21.65;;;;;;;6.94;78.97;99767.41;5090938;28;20078;-38
2022/01/03 09:23:44;;;;;;;47.63;22.58;;;;;;;6.94;79.08;99771.91;5092654;28;20050;-38
2022/01/03 09:29:10;;;;;;;42.58;20.45;;;;;;;7.12;78.29;99784.78;5049289;28;20031;-38
2022/01/03 09:31:36;;;;;;;44.13;20.55;;;;;;;7.08;78.64;99767.63;5083005;28;20233;-38
2022/01/03 09:34:04;;;;;;;41.22;19.77;;;;;;;7.32;78.41;99780.63;5090926;28;20024;-38
2022/01/03 09:36:30;;;;;;;44.03;20.92;;;;;;;7.46;77.63;99773.69;5087361;28;20480;-38
2022/01/03 09:38:56;;;;;;;43.83;21.05;;;;;;;8.78;73.52;99752.38;5071696;28;20032;-38
2022/01/03 09:41:23;;;;;;;41.35;20.77;;;;;;;8.36;73.97;99753.19;5071626;28;20098;-38
2022/01/03 09:44:11;;;;;;;42.00;20.25;;;;;;;8.54;74.93;99745.63;5074346;28;20029;-38
2022/01/03 09:46:38;;;;;;;41.13;20.77;;;;;;;8.37;76.33;99730.94;5091306;28;20455;-39
2022/01/03 09:49:05;;;;;;;40.47;20.55;;;;;;;8.42;76.58;99717.97;5091740;28;20467;-38
2022/01/03 09:51:31;;;;;;;39.13;20.73;;;;;;;8.57;73.09;99716.06;5091001;28;20012;-36
2022/01/03 09:54:07;;;;;;;37.80;20.60;;;;;;;8.74;73.19;99706.00;5091926;28;20020;-38
2022/01/03 09:56:33;;;;;;;39.88;19.73;;;;;;;8.76;73.57;99703.16;5090581;28;20103;-38
2022/01/03 09:59:02;;;;;;;40.10;19.13;;;;;;;9.10;74.01;99688.25;5090626;28;20472;-38
2022/01/03 10:01:32;;;;;;;37.05;19.67;;;;;;;9.31;71.65;99687.34;5091686;28;20024;-38
2022/01/03 10:03:57;;;;;;;40.17;20.80;;;;;;;9.51;71.58;99680.31;5090432;28;20030;-38
2022/01/03 10:06:25;;;;;;;32.40;18.08;;;;;;;9.83;69.73;99672.66;5091390;28;20036;-38
2022/01/03 10:08:50;;;;;;;35.35;19.10;;;;;;;9.95;67.41;99671.03;5091217;28;20596;-38
2022/01/03 10:11:16;;;;;;;38.97;18.25;;;;;;;10.01;67.30;99658.78;5091318;28;20103;-38
2022/01/03 10:13:41;;;;;;;36.92;19.25;;;;;;;10.08;66.25;99651.66;5091575;28;20027;-38
2022/01/03 10:16:07;;;;;;;33.70;19.17;;;;;;;10.10;67.64;99646.13;5083107;28;20500;-38
2022/01/03 10:18:33;;;;;;;35.20;19.20;;;;;;;10.21;66.14;99639.41;5089987;28;20028;-37
2022/01/03 10:20:59;;;;;;;35.42;18.77;;;;;;;9.89;66.80;99632.00;5088034;28;20016;-38
2022/01/03 10:23:25;;;;;;;31.90;18.52;;;;;;;10.09;67.35;99634.69;5087870;28;20279;-37
2022/01/03 10:25:50;;;;;;;34.72;18.20;;;;;;;10.49;65.87;99617.94;5088989;28;20012;-37
2022/01/03 10:28:26;;;;;;;36.50;19.33;;;;;;;10.69;64.41;99607.28;5089407;28;20046;-38
2022/01/03 10:30:52;;;;;;;32.95;18.95;;;;;;;10.96;64.03;99606.19;5088776;28;20084;-38
2022/01/03 10:33:19;;;;;;;34.88;18.35;;;;;;;11.02;63.23;99595.72;5069520;28;20024;-37
2022/01/03 10:35:46;;;;;;;34.15;18.85;;;;;;;11.12;64.67;99596.13;5088949;28;20024;-37
2022/01/03 10:38:32;;;;;;;42.38;19.58;;;;;;;11.03;63.81;99566.22;5090846;28;20020;-37
2022/01/03 10:41:21;;;;;;;36.22;18.75;;;;;;;11.05;63.93;99597.97;5088114;28;20032;-37
2022/01/03 10:43:55;;;;;;;34.42;19.13;;;;;;;11.42;62.77;99591.06;5088979;28;20126;-38
2022/01/03 10:46:23;;;;;;;37.30;20.40;;;;;;;11.59;62.99;99586.03;5087828;28;20020;-36
2022/01/03 10:48:49;;;;;;;32.92;20.20;;;;;;;11.57;63.14;99580.13;5090385;28;20063;-37
2022/01/03 10:51:25;;;;;;;34.60;20.10;;;;;;;11.45;63.85;99576.50;5090456;28;20049;-37
2022/01/03 10:53:51;;;;;;;37.50;21.00;;;;;;;11.64;63.23;99583.56;5090266;28;20080;-37
2022/01/03 10:56:48;;;;;;;37.65;21.20;;;;;;;11.67;62.37;99580.47;5088665;28;20024;-37
2022/01/03 10:59:21;;;;;;;39.53;19.92;;;;;;;11.77;62.15;99556.00;5081572;28;20035;-37
2022/01/03 11:02:11;;;;;;;34.35;19.42;;;;;;;12.16;62.04;99551.44;5090078;28;20028;-37
2022/01/03 11:13:10;;;;;;;40.05;20.63;;;;;;;12.71;59.66;99529.34;5090624;28;20035;-37
2022/01/03 11:15:40;;;;;;;39.90;21.00;;;;;;;12.50;60.00;99527.91;5090218;28;20476;-37
2022/01/03 11:18:14;;;;;;;41.60;21.05;;;;;;;12.02;62.75;99529.38;5090383;28;20036;-37
2022/01/03 11:20:39;;;;;;;40.63;22.00;;;;;;;12.18;61.88;99530.69;5090788;28;20500;-37
2022/01/03 11:23:05;;;;;;;33.83;19.55;;;;;;;12.56;61.27;99516.34;5090726;28;20032;-37
2022/01/03 11:25:32;;;;;;;36.03;21.40;;;;;;;12.70;60.29;99517.84;5090510;28;20411;-37
2022/01/03 11:27:57;;;;;;;40.13;21.58;;;;;;;12.65;60.55;99506.22;5090554;28;20460;-37
2022/01/03 11:30:22;;;;;;;35.28;20.70;;;;;;;12.61;61.27;99499.69;5089279;28;20687;-38
2022/01/03 11:32:49;;;;;;;36.30;20.88;;;;;;;12.63;61.30;99490.41;5089698;28;20089;-38
2022/01/03 11:35:14;;;;;;;37.33;20.92;;;;;;;12.47;61.35;99499.00;5093397;28;20433;-38
2022/01/03 11:37:40;;;;;;;38.85;20.98;;;;;;;12.48;61.15;99485.44;5094026;28;20113;-37
2022/01/03 11:40:06;;;;;;;34.30;20.60;;;;;;;12.47;61.56;99473.16;5091274;28;20056;-37